Hemavan, Hemavan Airport (ESUT)

NameHemavan Airport
CityHemavan
CountrySweden
ICAOESUT
IATAHMV
Altitude458 m
CoordinatesGoogle Map
Live Air TrafficLiveATC.net
METARESUT 091050Z AUTO 32007KT 9999 NCD M09/M11 Q0981
2019-12-09 10:50:00 Wind: Northwest (320°) 3.6 m/s - Visibility: > 10000 m - Temperature: -9 °C - Dew point: -11 °C - Humidity: 85.6% - Pressure: 0981 hPa

Sorry, no flights used the airport in this database.